Terminal Aerodrome Forecast
Issued by NWS Charleston, WV

Current Version | Previous Version | Graphics & Text | Print | Product List | Glossary On
Versions: 1 2 3 4 5 6 7 8 9 10 11 12 13 14 15 16 17 18 19 20 21 22 23
000
FTUS41 KRLX 272300
TAFBKW
TAF
KBKW 272320Z 2800/2824 12003KT P6SM SCT050
     FM281600 VRB03KT P6SM SCT100
     FM281800 VRB04KT P6SM SCT080
     FM282100 VRB03KT P6SM BKN050=

USA.gov is the U.S. government's official web portal to all federal, state and local government web resources and services.